sensor_id;sensor_type;location;lat;lon;timestamp;pressure;altitude;pressure_sealevel;temperature;humidity
20630;BME280;17386;43.846;25.950;2023-08-30T00:02:13;100040.22;;;29.11;51.65
20630;BME280;17386;43.846;25.950;2023-08-30T00:04:38;100035.66;;;29.19;51.85
20630;BME280;17386;43.846;25.950;2023-08-30T00:07:03;100018.56;;;29.16;51.97
20630;BME280;17386;43.846;25.950;2023-08-30T00:09:29;100026.28;;;29.28;51.68
20630;BME280;17386;43.846;25.950;2023-08-30T00:11:54;100036.59;;;29.26;51.68
20630;BME280;17386;43.846;25.950;2023-08-30T00:14:19;100037.63;;;29.25;51.36
20630;BME280;17386;43.846;25.950;2023-08-30T00:16:45;100037.88;;;29.30;51.08
20630;BME280;17386;43.846;25.950;2023-08-30T00:19:10;100028.53;;;29.39;50.78
20630;BME280;17386;43.846;25.950;2023-08-30T00:21:36;100012.56;;;29.42;50.80
20630;BME280;17386;43.846;25.950;2023-08-30T00:24:01;100009.44;;;29.46;50.69
20630;BME280;17386;43.846;25.950;2023-08-30T00:26:26;100010.72;;;29.50;50.43
20630;BME280;17386;43.846;25.950;2023-08-30T00:28:52;100009.03;;;29.49;50.44
20630;BME280;17386;43.846;25.950;2023-08-30T00:31:17;100018.41;;;29.54;50.18
20630;BME280;17386;43.846;25.950;2023-08-30T00:33:42;100004.31;;;29.57;50.21
20630;BME280;17386;43.846;25.950;2023-08-30T00:36:08;99994.88;;;29.60;50.31
20630;BME280;17386;43.846;25.950;2023-08-30T00:38:33;100002.88;;;29.61;50.37
20630;BME280;17386;43.846;25.950;2023-08-30T00:40:59;100006.66;;;29.60;50.17
20630;BME280;17386;43.846;25.950;2023-08-30T00:43:24;100008.28;;;29.55;50.46
20630;BME280;17386;43.846;25.950;2023-08-30T00:45:50;100012.06;;;29.54;50.33
20630;BME280;17386;43.846;25.950;2023-08-30T00:48:17;100017.75;;;29.52;50.62
20630;BME280;17386;43.846;25.950;2023-08-30T00:50:45;100022.72;;;29.49;51.59
20630;BME280;17386;43.846;25.950;2023-08-30T00:53:10;100027.91;;;29.43;52.19
20630;BME280;17386;43.846;25.950;2023-08-30T00:55:37;100028.72;;;29.37;52.40
20630;BME280;17386;43.846;25.950;2023-08-30T00:58:03;100011.75;;;29.27;52.43
20630;BME280;17386;43.846;25.950;2023-08-30T01:00:32;100008.13;;;29.20;52.68
20630;BME280;17386;43.846;25.950;2023-08-30T01:02:58;100019.81;;;29.14;52.97
20630;BME280;17386;43.846;25.950;2023-08-30T01:05:24;100024.94;;;29.02;53.50
20630;BME280;17386;43.846;25.950;2023-08-30T01:07:50;100030.72;;;28.93;54.18
20630;BME280;17386;43.846;25.950;2023-08-30T01:10:16;100030.31;;;28.81;55.25
20630;BME280;17386;43.846;25.950;2023-08-30T01:12:49;100023.16;;;28.65;56.06
20630;BME280;17386;43.846;25.950;2023-08-30T01:15:19;100026.19;;;28.55;57.04
20630;BME280;17386;43.846;25.950;2023-08-30T01:17:47;100029.47;;;28.36;57.41
20630;BME280;17386;43.846;25.950;2023-08-30T01:20:15;100035.78;;;28.14;58.52
20630;BME280;17386;43.846;25.950;2023-08-30T01:22:57;100038.44;;;28.07;58.82
20630;BME280;17386;43.846;25.950;2023-08-30T01:27:54;100037.47;;;28.00;60.37
20630;BME280;17386;43.846;25.950;2023-08-30T01:30:20;100041.50;;;27.89;61.14
20630;BME280;17386;43.846;25.950;2023-08-30T01:32:47;100046.47;;;27.86;61.69
20630;BME280;17386;43.846;25.950;2023-08-30T01:35:14;100034.56;;;27.78;62.71
20630;BME280;17386;43.846;25.950;2023-08-30T01:37:47;100040.28;;;27.69;63.20
20630;BME280;17386;43.846;25.950;2023-08-30T01:40:14;100034.50;;;27.64;62.68
20630;BME280;17386;43.846;25.950;2023-08-30T01:42:42;100028.44;;;27.53;62.72
20630;BME280;17386;43.846;25.950;2023-08-30T01:45:10;100037.34;;;27.47;62.25
20630;BME280;17386;43.846;25.950;2023-08-30T01:47:39;100035.16;;;27.43;62.45
20630;BME280;17386;43.846;25.950;2023-08-30T01:50:06;100036.38;;;27.40;62.27
20630;BME280;17386;43.846;25.950;2023-08-30T01:52:32;100032.81;;;27.40;62.90
20630;BME280;17386;43.846;25.950;2023-08-30T01:54:59;100029.91;;;27.41;62.92
20630;BME280;17386;43.846;25.950;2023-08-30T01:57:25;100023.41;;;27.42;62.90
20630;BME280;17386;43.846;25.950;2023-08-30T01:59:50;100023.59;;;27.41;63.18
20630;BME280;17386;43.846;25.950;2023-08-30T02:02:17;100027.53;;;27.38;63.70
20630;BME280;17386;43.846;25.950;2023-08-30T02:04:42;100038.59;;;27.37;63.37
20630;BME280;17386;43.846;25.950;2023-08-30T02:07:27;100028.25;;;27.32;63.50
20630;BME280;17386;43.846;25.950;2023-08-30T02:09:57;100022.97;;;27.31;63.77
20630;BME280;17386;43.846;25.950;2023-08-30T02:12:30;100014.31;;;27.27;63.97
20630;BME280;17386;43.846;25.950;2023-08-30T02:14:57;100017.22;;;27.25;63.55
20630;BME280;17386;43.846;25.950;2023-08-30T02:17:24;100022.84;;;27.24;63.16
20630;BME280;17386;43.846;25.950;2023-08-30T02:19:49;100028.47;;;27.22;63.11
20630;BME280;17386;43.846;25.950;2023-08-30T02:22:18;100019.63;;;27.20;63.08
20630;BME280;17386;43.846;25.950;2023-08-30T02:24:43;100011.50;;;27.12;62.61
20630;BME280;17386;43.846;25.950;2023-08-30T02:27:09;100020.66;;;27.19;62.61
20630;BME280;17386;43.846;25.950;2023-08-30T02:29:34;100019.97;;;27.17;62.63
20630;BME280;17386;43.846;25.950;2023-08-30T02:32:00;100015.94;;;27.13;62.78
20630;BME280;17386;43.846;25.950;2023-08-30T02:34:25;100014.75;;;27.08;63.19
20630;BME280;17386;43.846;25.950;2023-08-30T02:36:50;100010.53;;;27.05;63.43
20630;BME280;17386;43.846;25.950;2023-08-30T02:39:16;100016.09;;;27.04;63.90
20630;BME280;17386;43.846;25.950;2023-08-30T02:41:41;100020.22;;;26.99;64.04
20630;BME280;17386;43.846;25.950;2023-08-30T02:44:11;100013.09;;;26.98;64.19
20630;BME280;17386;43.846;25.950;2023-08-30T02:46:36;100015.13;;;26.96;64.66
20630;BME280;17386;43.846;25.950;2023-08-30T02:49:03;100021.78;;;26.94;64.46
20630;BME280;17386;43.846;25.950;2023-08-30T02:51:28;100025.72;;;26.91;64.39
20630;BME280;17386;43.846;25.950;2023-08-30T02:53:53;100042.22;;;26.90;64.75
20630;BME280;17386;43.846;25.950;2023-08-30T02:56:19;100049.09;;;26.86;64.84
20630;BME280;17386;43.846;25.950;2023-08-30T02:58:44;100038.22;;;26.78;65.66
20630;BME280;17386;43.846;25.950;2023-08-30T03:01:10;100045.88;;;26.74;65.56
20630;BME280;17386;43.846;25.950;2023-08-30T03:03:35;100050.84;;;26.70;65.90
20630;BME280;17386;43.846;25.950;2023-08-30T03:06:01;100046.75;;;26.66;65.81
20630;BME280;17386;43.846;25.950;2023-08-30T03:08:28;100052.56;;;26.63;65.86
20630;BME280;17386;43.846;25.950;2023-08-30T03:10:53;100054.13;;;26.58;66.27
20630;BME280;17386;43.846;25.950;2023-08-30T03:13:19;100048.16;;;26.54;66.58
20630;BME280;17386;43.846;25.950;2023-08-30T03:15:44;100062.31;;;26.50;67.01
20630;BME280;17386;43.846;25.950;2023-08-30T03:18:09;100064.72;;;26.44;67.28
20630;BME280;17386;43.846;25.950;2023-08-30T03:20:35;100054.13;;;26.41;67.68
20630;BME280;17386;43.846;25.950;2023-08-30T03:23:00;100059.25;;;26.36;69.10
20630;BME280;17386;43.846;25.950;2023-08-30T03:25:28;100058.06;;;26.31;70.13
20630;BME280;17386;43.846;25.950;2023-08-30T03:27:54;100065.72;;;26.27;70.36
20630;BME280;17386;43.846;25.950;2023-08-30T03:30:20;100068.13;;;26.22;71.66
20630;BME280;17386;43.846;25.950;2023-08-30T03:32:45;100070.31;;;26.18;72.04
20630;BME280;17386;43.846;25.950;2023-08-30T03:35:11;100073.53;;;26.14;72.98
20630;BME280;17386;43.846;25.950;2023-08-30T03:37:36;100074.75;;;26.11;73.72
20630;BME280;17386;43.846;25.950;2023-08-30T03:40:02;100071.53;;;26.08;74.21
20630;BME280;17386;43.846;25.950;2023-08-30T03:42:27;100080.88;;;26.05;74.48
20630;BME280;17386;43.846;25.950;2023-08-30T03:44:52;100077.66;;;26.02;74.67
20630;BME280;17386;43.846;25.950;2023-08-30T03:47:18;100069.81;;;25.99;75.09
20630;BME280;17386;43.846;25.950;2023-08-30T03:49:43;100073.38;;;25.99;74.33
20630;BME280;17386;43.846;25.950;2023-08-30T03:52:09;100077.97;;;25.99;74.73
20630;BME280;17386;43.846;25.950;2023-08-30T03:54:34;100072.53;;;25.99;74.97
20630;BME280;17386;43.846;25.950;2023-08-30T03:57:00;100072.03;;;25.95;75.41
20630;BME280;17386;43.846;25.950;2023-08-30T03:59:25;100070.31;;;25.94;76.12
20630;BME280;17386;43.846;25.950;2023-08-30T04:01:52;100071.53;;;25.91;75.79
20630;BME280;17386;43.846;25.950;2023-08-30T04:04:18;100072.03;;;25.87;76.24
20630;BME280;17386;43.846;25.950;2023-08-30T04:06:43;100074.25;;;25.83;76.83
20630;BME280;17386;43.846;25.950;2023-08-30T04:09:09;100072.88;;;25.79;77.59
20630;BME280;17386;43.846;25.950;2023-08-30T04:11:35;100076.44;;;25.80;77.83
20630;BME280;17386;43.846;25.950;2023-08-30T04:14:00;100071.53;;;25.75;78.20
20630;BME280;17386;43.846;25.950;2023-08-30T04:16:26;100082.22;;;25.77;78.13
20630;BME280;17386;43.846;25.950;2023-08-30T04:18:51;100082.06;;;25.78;78.33
20630;BME280;17386;43.846;25.950;2023-08-30T04:21:17;100083.59;;;25.81;76.88
20630;BME280;17386;43.846;25.950;2023-08-30T04:23:42;100089.72;;;25.83;76.19
20630;BME280;17386;43.846;25.950;2023-08-30T04:26:07;100095.66;;;25.86;75.99
20630;BME280;17386;43.846;25.950;2023-08-30T04:28:33;100099.22;;;25.87;76.13
20630;BME280;17386;43.846;25.950;2023-08-30T04:30:58;100095.53;;;25.88;77.10
20630;BME280;17386;43.846;25.950;2023-08-30T04:33:24;100091.59;;;25.90;76.46
20630;BME280;17386;43.846;25.950;2023-08-30T04:35:51;100093.97;;;25.94;75.94
20630;BME280;17386;43.846;25.950;2023-08-30T04:38:17;100101.13;;;25.95;75.62
20630;BME280;17386;43.846;25.950;2023-08-30T04:40:42;100098.41;;;25.95;75.46
20630;BME280;17386;43.846;25.950;2023-08-30T04:43:08;100100.97;;;25.96;75.71
20630;BME280;17386;43.846;25.950;2023-08-30T04:45:36;100098.41;;;25.95;75.22
20630;BME280;17386;43.846;25.950;2023-08-30T04:48:02;100113.72;;;25.96;75.45
20630;BME280;17386;43.846;25.950;2023-08-30T04:50:27;100113.72;;;25.96;75.19
20630;BME280;17386;43.846;25.950;2023-08-30T04:52:53;100122.56;;;25.98;74.79
20630;BME280;17386;43.846;25.950;2023-08-30T04:55:18;100121.22;;;26.02;74.99
20630;BME280;17386;43.846;25.950;2023-08-30T04:57:43;100121.53;;;26.07;74.54
20630;BME280;17386;43.846;25.950;2023-08-30T05:00:11;100129.72;;;26.15;73.71
20630;BME280;17386;43.846;25.950;2023-08-30T05:02:37;100138.38;;;26.18;73.76
20630;BME280;17386;43.846;25.950;2023-08-30T05:05:02;100144.19;;;26.24;73.48
20630;BME280;17386;43.846;25.950;2023-08-30T05:07:28;100159.31;;;26.26;73.01
20630;BME280;17386;43.846;25.950;2023-08-30T05:09:53;100170.19;;;26.26;73.18
20630;BME280;17386;43.846;25.950;2023-08-30T05:12:18;100158.47;;;26.26;74.15
20630;BME280;17386;43.846;25.950;2023-08-30T05:14:44;100166.63;;;26.34;74.13
20630;BME280;17386;43.846;25.950;2023-08-30T05:17:09;100172.25;;;26.40;74.86
20630;BME280;17386;43.846;25.950;2023-08-30T05:19:35;100162.19;;;26.33;75.13
20630;BME280;17386;43.846;25.950;2023-08-30T05:22:00;100176.50;;;26.18;75.43
20630;BME280;17386;43.846;25.950;2023-08-30T05:24:26;100169.34;;;26.01;76.08
20630;BME280;17386;43.846;25.950;2023-08-30T05:26:52;100175.13;;;26.06;76.71
20630;BME280;17386;43.846;25.950;2023-08-30T05:29:17;100172.38;;;26.14;75.77
20630;BME280;17386;43.846;25.950;2023-08-30T05:31:43;100186.53;;;26.10;76.08
20630;BME280;17386;43.846;25.950;2023-08-30T05:34:10;100184.47;;;26.04;76.28
20630;BME280;17386;43.846;25.950;2023-08-30T05:36:35;100181.75;;;26.04;76.36
20630;BME280;17386;43.846;25.950;2023-08-30T05:39:00;100181.75;;;26.12;76.44
20630;BME280;17386;43.846;25.950;2023-08-30T05:41:26;100177.47;;;25.93;77.04
20630;BME280;17386;43.846;25.950;2023-08-30T05:43:53;100189.97;;;25.70;77.10
20630;BME280;17386;43.846;25.950;2023-08-30T05:46:18;100189.19;;;25.77;76.82
20630;BME280;17386;43.846;25.950;2023-08-30T05:48:44;100187.47;;;25.76;76.45
20630;BME280;17386;43.846;25.950;2023-08-30T05:51:09;100199.22;;;25.85;76.15
20630;BME280;17386;43.846;25.950;2023-08-30T05:53:34;100206.38;;;25.86;75.73
20630;BME280;17386;43.846;25.950;2023-08-30T05:56:00;100201.63;;;25.88;75.54
20630;BME280;17386;43.846;25.950;2023-08-30T05:58:25;100198.06;;;25.96;75.08
20630;BME280;17386;43.846;25.950;2023-08-30T06:00:51;100202.16;;;26.00;74.70
20630;BME280;17386;43.846;25.950;2023-08-30T06:03:16;100206.94;;;26.06;74.24
20630;BME280;17386;43.846;25.950;2023-08-30T06:05:42;100205.75;;;26.08;74.54
20630;BME280;17386;43.846;25.950;2023-08-30T06:08:08;100203.03;;;26.16;73.56
20630;BME280;17386;43.846;25.950;2023-08-30T06:10:35;100212.41;;;26.22;72.99
20630;BME280;17386;43.846;25.950;2023-08-30T06:13:01;100212.41;;;26.30;72.90
20630;BME280;17386;43.846;25.950;2023-08-30T06:15:28;100217.50;;;26.33;72.47
20630;BME280;17386;43.846;25.950;2023-08-30T06:17:53;100219.72;;;26.38;71.81
20630;BME280;17386;43.846;25.950;2023-08-30T06:20:19;100207.28;;;26.27;71.89
20630;BME280;17386;43.846;25.950;2023-08-30T06:22:44;100213.94;;;26.33;72.26
20630;BME280;17386;43.846;25.950;2023-08-30T06:25:09;100212.25;;;26.40;71.69
20630;BME280;17386;43.846;25.950;2023-08-30T06:27:55;100214.66;;;26.43;71.19
20630;BME280;17386;43.846;25.950;2023-08-30T06:30:22;100213.13;;;26.40;72.00
20630;BME280;17386;43.846;25.950;2023-08-30T06:32:48;100212.59;;;26.29;72.18
20630;BME280;17386;43.846;25.950;2023-08-30T06:35:14;100224.31;;;26.29;72.72
20630;BME280;17386;43.846;25.950;2023-08-30T06:37:40;100216.88;;;26.48;71.74
20630;BME280;17386;43.846;25.950;2023-08-30T06:40:06;100216.72;;;26.49;71.86
20630;BME280;17386;43.846;25.950;2023-08-30T06:42:31;100218.72;;;26.55;71.42
20630;BME280;17386;43.846;25.950;2023-08-30T06:44:57;100215.19;;;26.63;71.31
20630;BME280;17386;43.846;25.950;2023-08-30T06:47:22;100217.53;;;26.74;70.95
20630;BME280;17386;43.846;25.950;2023-08-30T06:49:47;100216.34;;;26.85;70.71
20630;BME280;17386;43.846;25.950;2023-08-30T06:52:13;100220.75;;;26.94;70.73
20630;BME280;17386;43.846;25.950;2023-08-30T06:54:38;100215.97;;;26.96;69.94
20630;BME280;17386;43.846;25.950;2023-08-30T06:57:04;100217.84;;;26.87;69.86
20630;BME280;17386;43.846;25.950;2023-08-30T06:59:31;100219.56;;;26.88;70.27
20630;BME280;17386;43.846;25.950;2023-08-30T07:01:56;100220.44;;;27.05;70.11
20630;BME280;17386;43.846;25.950;2023-08-30T07:04:22;100220.38;;;27.21;69.78
20630;BME280;17386;43.846;25.950;2023-08-30T07:06:47;100208.41;;;27.31;68.68
20630;BME280;17386;43.846;25.950;2023-08-30T07:09:12;100218.91;;;27.50;68.43
20630;BME280;17386;43.846;25.950;2023-08-30T07:11:38;100216.28;;;27.65;67.98
20630;BME280;17386;43.846;25.950;2023-08-30T07:14:04;100220.84;;;27.80;67.07
20630;BME280;17386;43.846;25.950;2023-08-30T07:16:30;100228.28;;;27.95;66.68
20630;BME280;17386;43.846;25.950;2023-08-30T07:18:57;100221.19;;;28.08;65.96
20630;BME280;17386;43.846;25.950;2023-08-30T07:21:23;100208.97;;;28.19;65.91
20630;BME280;17386;43.846;25.950;2023-08-30T07:23:48;100215.06;;;28.29;65.59
20630;BME280;17386;43.846;25.950;2023-08-30T07:26:13;100208.53;;;28.39;64.83
20630;BME280;17386;43.846;25.950;2023-08-30T07:28:39;100203.00;;;28.47;64.91
20630;BME280;17386;43.846;25.950;2023-08-30T07:31:05;100212.53;;;28.51;64.13
20630;BME280;17386;43.846;25.950;2023-08-30T07:33:30;100210.13;;;28.56;63.69
20630;BME280;17386;43.846;25.950;2023-08-30T07:35:56;100206.25;;;28.65;63.44
20630;BME280;17386;43.846;25.950;2023-08-30T07:38:21;100201.00;;;28.64;63.26
20630;BME280;17386;43.846;25.950;2023-08-30T07:40:47;100207.88;;;28.74;63.07
20630;BME280;17386;43.846;25.950;2023-08-30T07:43:12;100193.66;;;28.79;61.87
20630;BME280;17386;43.846;25.950;2023-08-30T07:45:38;100198.19;;;28.86;62.13
20630;BME280;17386;43.846;25.950;2023-08-30T07:48:03;100194.00;;;28.99;61.87
20630;BME280;17386;43.846;25.950;2023-08-30T07:50:29;100203.44;;;29.11;61.03
20630;BME280;17386;43.846;25.950;2023-08-30T07:52:54;100199.78;;;29.19;60.60
20630;BME280;17386;43.846;25.950;2023-08-30T07:55:20;100203.63;;;29.24;60.03
20630;BME280;17386;43.846;25.950;2023-08-30T07:57:45;100197.03;;;29.19;60.13
20630;BME280;17386;43.846;25.950;2023-08-30T08:00:11;100198.63;;;29.28;59.83
20630;BME280;17386;43.846;25.950;2023-08-30T08:02:37;100198.16;;;29.39;59.57
20630;BME280;17386;43.846;25.950;2023-08-30T08:05:03;100196.09;;;28.97;60.52
20630;BME280;17386;43.846;25.950;2023-08-30T08:07:28;100191.06;;;29.15;60.63
20630;BME280;17386;43.846;25.950;2023-08-30T08:09:53;100195.03;;;29.12;61.14
20630;BME280;17386;43.846;25.950;2023-08-30T08:12:20;100202.41;;;29.27;60.60
20630;BME280;17386;43.846;25.950;2023-08-30T08:14:46;100197.13;;;29.55;59.77
20630;BME280;17386;43.846;25.950;2023-08-30T08:17:13;100193.38;;;29.77;58.72
20630;BME280;17386;43.846;25.950;2023-08-30T08:19:39;100200.88;;;29.68;58.73
20630;BME280;17386;43.846;25.950;2023-08-30T08:22:05;100188.69;;;29.71;58.22
20630;BME280;17386;43.846;25.950;2023-08-30T08:24:31;100185.06;;;29.85;57.42
20630;BME280;17386;43.846;25.950;2023-08-30T08:26:56;100188.47;;;29.87;56.90
20630;BME280;17386;43.846;25.950;2023-08-30T08:29:22;100191.16;;;30.02;56.74
20630;BME280;17386;43.846;25.950;2023-08-30T08:31:47;100185.19;;;30.13;56.47
20630;BME280;17386;43.846;25.950;2023-08-30T08:34:13;100196.41;;;30.18;55.57
20630;BME280;17386;43.846;25.950;2023-08-30T08:36:40;100195.84;;;30.08;55.70
20630;BME280;17386;43.846;25.950;2023-08-30T08:39:06;100204.19;;;30.15;56.09
20630;BME280;17386;43.846;25.950;2023-08-30T08:41:44;100196.31;;;30.12;55.70
20630;BME280;17386;43.846;25.950;2023-08-30T08:44:12;100193.09;;;30.23;55.79
20630;BME280;17386;43.846;25.950;2023-08-30T08:46:39;100189.84;;;29.98;56.23
20630;BME280;17386;43.846;25.950;2023-08-30T08:49:08;100190.75;;;30.05;56.52
20630;BME280;17386;43.846;25.950;2023-08-30T08:51:35;100192.88;;;30.24;55.26
20630;BME280;17386;43.846;25.950;2023-08-30T08:54:03;100189.75;;;30.49;53.69
20630;BME280;17386;43.846;25.950;2023-08-30T08:56:30;100192.69;;;30.69;52.78
20630;BME280;17386;43.846;25.950;2023-08-30T08:58:56;100185.69;;;30.94;52.06
20630;BME280;17386;43.846;25.950;2023-08-30T09:01:21;100193.41;;;31.12;51.81
20630;BME280;17386;43.846;25.950;2023-08-30T09:03:47;100183.69;;;30.75;52.54
20630;BME280;17386;43.846;25.950;2023-08-30T09:06:13;100180.63;;;30.91;52.18
20630;BME280;17386;43.846;25.950;2023-08-30T09:08:40;100178.03;;;30.83;52.49
20630;BME280;17386;43.846;25.950;2023-08-30T09:11:05;100168.22;;;31.02;51.49
20630;BME280;17386;43.846;25.950;2023-08-30T09:13:31;100167.28;;;31.16;50.93
20630;BME280;17386;43.846;25.950;2023-08-30T09:15:57;100165.31;;;31.38;49.91
20630;BME280;17386;43.846;25.950;2023-08-30T09:18:22;100169.34;;;31.49;49.91
20630;BME280;17386;43.846;25.950;2023-08-30T09:21:08;100163.28;;;31.60;49.13
20630;BME280;17386;43.846;25.950;2023-08-30T09:23:34;100152.91;;;31.55;49.45
20630;BME280;17386;43.846;25.950;2023-08-30T09:26:00;100163.94;;;31.69;49.31
20630;BME280;17386;43.846;25.950;2023-08-30T09:28:26;100152.38;;;31.80;49.12
20630;BME280;17386;43.846;25.950;2023-08-30T09:30:52;100152.81;;;31.90;48.66
20630;BME280;17386;43.846;25.950;2023-08-30T09:33:30;100146.75;;;32.08;49.22
20630;BME280;17386;43.846;25.950;2023-08-30T09:36:00;100144.84;;;32.22;49.04
20630;BME280;17386;43.846;25.950;2023-08-30T09:38:25;100143.38;;;32.06;49.13
20630;BME280;17386;43.846;25.950;2023-08-30T09:40:52;100139.56;;;32.13;48.93
20630;BME280;17386;43.846;25.950;2023-08-30T09:43:18;100138.72;;;32.20;47.91
20630;BME280;17386;43.846;25.950;2023-08-30T09:45:44;100144.69;;;32.36;48.02
20630;BME280;17386;43.846;25.950;2023-08-30T09:48:10;100134.13;;;32.33;47.88
20630;BME280;17386;43.846;25.950;2023-08-30T09:50:36;100138.13;;;32.44;48.10
20630;BME280;17386;43.846;25.950;2023-08-30T09:53:07;100139.41;;;32.55;47.46
20630;BME280;17386;43.846;25.950;2023-08-30T09:55:33;100140.63;;;32.65;47.29
20630;BME280;17386;43.846;25.950;2023-08-30T09:58:03;100134.50;;;32.63;47.50
20630;BME280;17386;43.846;25.950;2023-08-30T10:00:33;100131.97;;;32.82;47.04
20630;BME280;17386;43.846;25.950;2023-08-30T10:03:02;100119.91;;;32.76;46.06
20630;BME280;17386;43.846;25.950;2023-08-30T10:05:29;100124.56;;;32.96;45.64
20630;BME280;17386;43.846;25.950;2023-08-30T10:07:54;100136.59;;;33.01;44.97
20630;BME280;17386;43.846;25.950;2023-08-30T10:10:22;100128.72;;;33.18;44.31
20630;BME280;17386;43.846;25.950;2023-08-30T10:12:47;100126.09;;;33.50;44.16
20630;BME280;17386;43.846;25.950;2023-08-30T10:15:13;100122.31;;;33.75;43.52
20630;BME280;17386;43.846;25.950;2023-08-30T10:17:41;100123.06;;;33.96;41.96
20630;BME280;17386;43.846;25.950;2023-08-30T10:20:09;100116.38;;;34.10;41.58
20630;BME280;17386;43.846;25.950;2023-08-30T10:22:37;100107.50;;;34.08;41.59
20630;BME280;17386;43.846;25.950;2023-08-30T10:25:06;100108.91;;;33.92;41.24
20630;BME280;17386;43.846;25.950;2023-08-30T10:27:35;100114.06;;;33.75;41.30
20630;BME280;17386;43.846;25.950;2023-08-30T10:30:02;100100.41;;;33.94;39.50
20630;BME280;17386;43.846;25.950;2023-08-30T10:32:29;100101.19;;;34.01;40.29
20630;BME280;17386;43.846;25.950;2023-08-30T10:34:55;100108.06;;;33.92;40.73
20630;BME280;17386;43.846;25.950;2023-08-30T10:37:25;100111.66;;;33.92;41.43
20630;BME280;17386;43.846;25.950;2023-08-30T10:39:51;100106.16;;;33.86;41.92
20630;BME280;17386;43.846;25.950;2023-08-30T10:42:17;100105.88;;;33.62;42.50
20630;BME280;17386;43.846;25.950;2023-08-30T10:49:49;100089.78;;;33.59;41.41
20630;BME280;17386;43.846;25.950;2023-08-30T10:52:14;100084.78;;;33.81;40.99
20630;BME280;17386;43.846;25.950;2023-08-30T10:54:40;100087.66;;;33.99;41.14
20630;BME280;17386;43.846;25.950;2023-08-30T10:57:12;100092.00;;;34.14;40.68
20630;BME280;17386;43.846;25.950;2023-08-30T10:59:38;100085.22;;;34.10;40.52
20630;BME280;17386;43.846;25.950;2023-08-30T11:02:04;100089.56;;;33.99;39.92
20630;BME280;17386;43.846;25.950;2023-08-30T11:04:30;100080.28;;;33.93;39.96
20630;BME280;17386;43.846;25.950;2023-08-30T11:06:56;100070.28;;;33.99;38.64
20630;BME280;17386;43.846;25.950;2023-08-30T11:09:23;100066.97;;;34.15;38.76
20630;BME280;17386;43.846;25.950;2023-08-30T11:11:50;100073.00;;;34.06;39.13
20630;BME280;17386;43.846;25.950;2023-08-30T11:14:17;100068.16;;;34.26;39.04
20630;BME280;17386;43.846;25.950;2023-08-30T11:16:43;100059.16;;;34.12;42.21
20630;BME280;17386;43.846;25.950;2023-08-30T11:19:10;100053.06;;;34.04;41.75
20630;BME280;17386;43.846;25.950;2023-08-30T11:21:40;100055.69;;;34.17;40.16
20630;BME280;17386;43.846;25.950;2023-08-30T11:24:07;100053.53;;;34.25;38.81
20630;BME280;17386;43.846;25.950;2023-08-30T11:26:33;100043.88;;;34.35;37.67
20630;BME280;17386;43.846;25.950;2023-08-30T11:29:06;100034.38;;;34.31;37.63
20630;BME280;17386;43.846;25.950;2023-08-30T11:31:32;100035.97;;;34.20;38.02
20630;BME280;17386;43.846;25.950;2023-08-30T11:33:58;100027.41;;;34.03;38.16
20630;BME280;17386;43.846;25.950;2023-08-30T11:36:26;100031.78;;;34.11;37.83
20630;BME280;17386;43.846;25.950;2023-08-30T11:38:53;100024.41;;;34.11;37.18
20630;BME280;17386;43.846;25.950;2023-08-30T11:41:22;100025.13;;;34.25;37.68
20630;BME280;17386;43.846;25.950;2023-08-30T11:43:48;100029.88;;;34.36;37.71
20630;BME280;17386;43.846;25.950;2023-08-30T11:46:14;100013.69;;;34.21;37.90
20630;BME280;17386;43.846;25.950;2023-08-30T11:48:40;100016.06;;;34.36;37.39
20630;BME280;17386;43.846;25.950;2023-08-30T11:51:07;100016.47;;;34.40;37.21
20630;BME280;17386;43.846;25.950;2023-08-30T11:53:33;100014.88;;;34.32;37.08
20630;BME280;17386;43.846;25.950;2023-08-30T11:55:59;100014.03;;;34.32;36.94
20630;BME280;17386;43.846;25.950;2023-08-30T11:58:25;100010.47;;;34.49;37.00
20630;BME280;17386;43.846;25.950;2023-08-30T12:00:51;100003.09;;;34.43;36.30
20630;BME280;17386;43.846;25.950;2023-08-30T12:03:19;99998.38;;;34.25;37.34
20630;BME280;17386;43.846;25.950;2023-08-30T12:05:46;100007.19;;;34.34;37.62
20630;BME280;17386;43.846;25.950;2023-08-30T12:08:40;99997.75;;;34.48;37.56
20630;BME280;17386;43.846;25.950;2023-08-30T12:11:17;99990.50;;;34.29;37.29
20630;BME280;17386;43.846;25.950;2023-08-30T12:13:43;99992.72;;;34.20;37.78
20630;BME280;17386;43.846;25.950;2023-08-30T12:16:15;99991.03;;;34.38;37.76
20630;BME280;17386;43.846;25.950;2023-08-30T12:18:41;99988.91;;;34.40;37.11
20630;BME280;17386;43.846;25.950;2023-08-30T12:21:07;99981.44;;;34.47;37.01
20630;BME280;17386;43.846;25.950;2023-08-30T12:23:33;99983.19;;;34.41;36.78
20630;BME280;17386;43.846;25.950;2023-08-30T12:26:09;99982.72;;;34.44;37.17
20630;BME280;17386;43.846;25.950;2023-08-30T12:28:36;99982.03;;;34.49;36.82
20630;BME280;17386;43.846;25.950;2023-08-30T12:31:02;99987.19;;;34.45;37.16
20630;BME280;17386;43.846;25.950;2023-08-30T12:33:31;99975.91;;;34.47;37.15
20630;BME280;17386;43.846;25.950;2023-08-30T12:35:57;99985.81;;;34.54;37.08
20630;BME280;17386;43.846;25.950;2023-08-30T12:38:23;99970.00;;;34.62;37.02
20630;BME280;17386;43.846;25.950;2023-08-30T12:40:50;99968.19;;;34.55;36.84
20630;BME280;17386;43.846;25.950;2023-08-30T12:43:16;99975.22;;;34.70;37.04
20630;BME280;17386;43.846;25.950;2023-08-30T12:45:43;99973.22;;;34.77;36.69